sensor_id;sensor_type;location;lat;lon;timestamp;temperature;humidity
75987;DHT22;64671;44.726;37.764;2023-11-19T00:00:15;9.82;74.59
75987;DHT22;64671;44.726;37.764;2023-11-19T00:01:18;9.84;74.37
75987;DHT22;64671;44.726;37.764;2023-11-19T00:02:21;9.84;74.86
75987;DHT22;64671;44.726;37.764;2023-11-19T00:03:24;9.85;74.53
75987;DHT22;64671;44.726;37.764;2023-11-19T00:04:27;9.88;75.58
75987;DHT22;64671;44.726;37.764;2023-11-19T00:05:30;9.82;73.99
75987;DHT22;64671;44.726;37.764;2023-11-19T00:06:33;9.79;74.82
75987;DHT22;64671;44.726;37.764;2023-11-19T00:07:37;9.76;75.06
75987;DHT22;64671;44.726;37.764;2023-11-19T00:08:47;9.76;75.04
75987;DHT22;64671;44.726;37.764;2023-11-19T00:09:50;9.78;75.85
75987;DHT22;64671;44.726;37.764;2023-11-19T00:10:53;9.80;74.99
75987;DHT22;64671;44.726;37.764;2023-11-19T00:11:56;9.84;75.21
75987;DHT22;64671;44.726;37.764;2023-11-19T00:13:00;9.86;75.71
75987;DHT22;64671;44.726;37.764;2023-11-19T00:14:05;9.90;75.49
75987;DHT22;64671;44.726;37.764;2023-11-19T00:15:11;9.89;75.60
75987;DHT22;64671;44.726;37.764;2023-11-19T00:16:14;9.90;74.34
75987;DHT22;64671;44.726;37.764;2023-11-19T00:17:19;9.90;75.19
75987;DHT22;64671;44.726;37.764;2023-11-19T00:18:22;9.89;74.97
75987;DHT22;64671;44.726;37.764;2023-11-19T00:19:25;9.89;74.57
75987;DHT22;64671;44.726;37.764;2023-11-19T00:20:29;9.89;76.53
75987;DHT22;64671;44.726;37.764;2023-11-19T00:21:32;9.84;75.18
75987;DHT22;64671;44.726;37.764;2023-11-19T00:22:36;9.81;76.28
75987;DHT22;64671;44.726;37.764;2023-11-19T00:23:50;9.78;75.35
75987;DHT22;64671;44.726;37.764;2023-11-19T00:24:54;9.77;76.61
75987;DHT22;64671;44.726;37.764;2023-11-19T00:25:57;9.74;76.15
75987;DHT22;64671;44.726;37.764;2023-11-19T00:27:00;9.71;75.94
75987;DHT22;64671;44.726;37.764;2023-11-19T00:28:03;9.68;75.34
75987;DHT22;64671;44.726;37.764;2023-11-19T00:29:07;9.66;76.05
75987;DHT22;64671;44.726;37.764;2023-11-19T00:30:10;9.66;76.47
75987;DHT22;64671;44.726;37.764;2023-11-19T00:31:13;9.67;76.29
75987;DHT22;64671;44.726;37.764;2023-11-19T00:32:19;9.66;77.15
75987;DHT22;64671;44.726;37.764;2023-11-19T00:33:22;9.65;76.49
75987;DHT22;64671;44.726;37.764;2023-11-19T00:34:25;9.65;77.17
75987;DHT22;64671;44.726;37.764;2023-11-19T00:35:28;9.63;76.95
75987;DHT22;64671;44.726;37.764;2023-11-19T00:36:32;9.64;76.68
75987;DHT22;64671;44.726;37.764;2023-11-19T00:37:35;9.66;78.06
75987;DHT22;64671;44.726;37.764;2023-11-19T00:38:38;9.68;77.76
75987;DHT22;64671;44.726;37.764;2023-11-19T00:39:42;9.70;76.86
75987;DHT22;64671;44.726;37.764;2023-11-19T00:40:46;9.71;76.68
75987;DHT22;64671;44.726;37.764;2023-11-19T00:41:49;9.74;77.14
75987;DHT22;64671;44.726;37.764;2023-11-19T00:42:52;9.74;76.42
75987;DHT22;64671;44.726;37.764;2023-11-19T00:43:55;9.79;75.62
75987;DHT22;64671;44.726;37.764;2023-11-19T00:44:58;9.82;76.84
75987;DHT22;64671;44.726;37.764;2023-11-19T00:46:01;9.81;75.67
75987;DHT22;64671;44.726;37.764;2023-11-19T00:47:05;9.80;76.15
75987;DHT22;64671;44.726;37.764;2023-11-19T00:48:08;9.78;76.35
75987;DHT22;64671;44.726;37.764;2023-11-19T00:49:11;9.74;76.03
75987;DHT22;64671;44.726;37.764;2023-11-19T00:50:14;9.70;77.41
75987;DHT22;64671;44.726;37.764;2023-11-19T00:51:17;9.68;77.92
75987;DHT22;64671;44.726;37.764;2023-11-19T00:52:20;9.67;76.37
75987;DHT22;64671;44.726;37.764;2023-11-19T00:53:24;9.67;76.76
75987;DHT22;64671;44.726;37.764;2023-11-19T00:54:27;9.63;77.10
75987;DHT22;64671;44.726;37.764;2023-11-19T00:55:30;9.57;76.44
75987;DHT22;64671;44.726;37.764;2023-11-19T00:56:33;9.55;76.15
75987;DHT22;64671;44.726;37.764;2023-11-19T00:57:35;9.53;77.06
75987;DHT22;64671;44.726;37.764;2023-11-19T00:58:38;9.52;77.18
75987;DHT22;64671;44.726;37.764;2023-11-19T00:59:42;9.49;77.50
75987;DHT22;64671;44.726;37.764;2023-11-19T01:00:45;9.47;77.05
75987;DHT22;64671;44.726;37.764;2023-11-19T01:01:48;9.48;76.37
75987;DHT22;64671;44.726;37.764;2023-11-19T01:02:51;9.52;76.83
75987;DHT22;64671;44.726;37.764;2023-11-19T01:03:53;9.49;76.51
75987;DHT22;64671;44.726;37.764;2023-11-19T01:04:56;9.48;77.65
75987;DHT22;64671;44.726;37.764;2023-11-19T01:05:59;9.48;77.84
75987;DHT22;64671;44.726;37.764;2023-11-19T01:07:04;9.45;76.82
75987;DHT22;64671;44.726;37.764;2023-11-19T01:08:07;9.45;77.77
75987;DHT22;64671;44.726;37.764;2023-11-19T01:09:10;9.42;77.61
75987;DHT22;64671;44.726;37.764;2023-11-19T01:10:13;9.41;77.15
75987;DHT22;64671;44.726;37.764;2023-11-19T01:11:21;9.42;79.14
75987;DHT22;64671;44.726;37.764;2023-11-19T01:12:24;9.41;77.36
75987;DHT22;64671;44.726;37.764;2023-11-19T01:13:27;9.44;77.55
75987;DHT22;64671;44.726;37.764;2023-11-19T01:14:30;9.46;77.62
75987;DHT22;64671;44.726;37.764;2023-11-19T01:15:33;9.45;78.43
75987;DHT22;64671;44.726;37.764;2023-11-19T01:16:36;9.46;77.82
75987;DHT22;64671;44.726;37.764;2023-11-19T01:17:39;9.48;76.55
75987;DHT22;64671;44.726;37.764;2023-11-19T01:18:53;9.50;76.61
75987;DHT22;64671;44.726;37.764;2023-11-19T01:20:01;9.50;77.07
75987;DHT22;64671;44.726;37.764;2023-11-19T01:21:05;9.50;78.37
75987;DHT22;64671;44.726;37.764;2023-11-19T01:22:08;9.50;77.23
75987;DHT22;64671;44.726;37.764;2023-11-19T01:23:10;9.48;77.01
75987;DHT22;64671;44.726;37.764;2023-11-19T01:24:13;9.48;77.14
75987;DHT22;64671;44.726;37.764;2023-11-19T01:25:16;9.48;77.25
75987;DHT22;64671;44.726;37.764;2023-11-19T01:26:20;9.50;77.37
75987;DHT22;64671;44.726;37.764;2023-11-19T01:27:22;9.51;77.42
75987;DHT22;64671;44.726;37.764;2023-11-19T01:28:26;9.51;78.14
75987;DHT22;64671;44.726;37.764;2023-11-19T01:29:29;9.52;76.71
75987;DHT22;64671;44.726;37.764;2023-11-19T01:30:31;9.54;77.71
75987;DHT22;64671;44.726;37.764;2023-11-19T01:31:34;9.55;77.82
75987;DHT22;64671;44.726;37.764;2023-11-19T01:32:37;9.54;77.47
75987;DHT22;64671;44.726;37.764;2023-11-19T01:33:40;9.50;77.91
75987;DHT22;64671;44.726;37.764;2023-11-19T01:34:44;9.49;77.49
75987;DHT22;64671;44.726;37.764;2023-11-19T01:35:47;9.47;78.22
75987;DHT22;64671;44.726;37.764;2023-11-19T01:36:50;9.44;78.15
75987;DHT22;64671;44.726;37.764;2023-11-19T01:37:53;9.39;77.82
75987;DHT22;64671;44.726;37.764;2023-11-19T01:38:55;9.37;78.28
75987;DHT22;64671;44.726;37.764;2023-11-19T01:39:58;9.35;78.58
75987;DHT22;64671;44.726;37.764;2023-11-19T01:41:01;9.33;79.53
75987;DHT22;64671;44.726;37.764;2023-11-19T01:42:05;9.31;78.74
75987;DHT22;64671;44.726;37.764;2023-11-19T01:43:08;9.32;77.96
75987;DHT22;64671;44.726;37.764;2023-11-19T01:44:14;9.32;78.79
75987;DHT22;64671;44.726;37.764;2023-11-19T01:45:27;9.32;78.14
75987;DHT22;64671;44.726;37.764;2023-11-19T01:46:32;9.34;77.94
75987;DHT22;64671;44.726;37.764;2023-11-19T01:47:36;9.35;78.82
75987;DHT22;64671;44.726;37.764;2023-11-19T01:48:43;9.36;77.87
75987;DHT22;64671;44.726;37.764;2023-11-19T01:49:47;9.38;78.92
75987;DHT22;64671;44.726;37.764;2023-11-19T01:50:50;9.38;78.71
75987;DHT22;64671;44.726;37.764;2023-11-19T01:52:03;9.40;79.41
75987;DHT22;64671;44.726;37.764;2023-11-19T01:53:07;9.40;78.26
75987;DHT22;64671;44.726;37.764;2023-11-19T01:54:11;9.41;79.24
75987;DHT22;64671;44.726;37.764;2023-11-19T01:55:14;9.41;78.97
75987;DHT22;64671;44.726;37.764;2023-11-19T01:56:17;9.42;78.16
75987;DHT22;64671;44.726;37.764;2023-11-19T01:57:22;9.38;77.93
75987;DHT22;64671;44.726;37.764;2023-11-19T01:58:26;9.40;78.26
75987;DHT22;64671;44.726;37.764;2023-11-19T01:59:29;9.39;78.13
75987;DHT22;64671;44.726;37.764;2023-11-19T02:00:32;9.42;78.30
75987;DHT22;64671;44.726;37.764;2023-11-19T02:01:36;9.44;78.24
75987;DHT22;64671;44.726;37.764;2023-11-19T02:02:43;9.44;77.06
75987;DHT22;64671;44.726;37.764;2023-11-19T02:03:47;9.46;77.18
75987;DHT22;64671;44.726;37.764;2023-11-19T02:04:51;9.47;78.22
75987;DHT22;64671;44.726;37.764;2023-11-19T02:05:55;9.46;77.29
75987;DHT22;64671;44.726;37.764;2023-11-19T02:06:58;9.47;77.99
75987;DHT22;64671;44.726;37.764;2023-11-19T02:08:01;9.48;78.11
75987;DHT22;64671;44.726;37.764;2023-11-19T02:09:05;9.46;76.86
75987;DHT22;64671;44.726;37.764;2023-11-19T02:10:10;9.46;76.98
75987;DHT22;64671;44.726;37.764;2023-11-19T02:11:16;9.47;76.97
75987;DHT22;64671;44.726;37.764;2023-11-19T02:12:19;9.46;78.02
75987;DHT22;64671;44.726;37.764;2023-11-19T02:13:27;9.45;77.11
75987;DHT22;64671;44.726;37.764;2023-11-19T02:14:31;9.45;77.92
75987;DHT22;64671;44.726;37.764;2023-11-19T02:15:35;9.44;77.34
75987;DHT22;64671;44.726;37.764;2023-11-19T02:16:38;9.44;77.20
75987;DHT22;64671;44.726;37.764;2023-11-19T02:17:41;9.42;77.47
75987;DHT22;64671;44.726;37.764;2023-11-19T02:18:46;9.41;77.75
75987;DHT22;64671;44.726;37.764;2023-11-19T02:19:49;9.42;76.77
75987;DHT22;64671;44.726;37.764;2023-11-19T02:20:52;9.39;77.92
75987;DHT22;64671;44.726;37.764;2023-11-19T02:21:55;9.38;77.69
75987;DHT22;64671;44.726;37.764;2023-11-19T02:22:58;9.40;78.35
75987;DHT22;64671;44.726;37.764;2023-11-19T02:24:06;9.40;78.82
75987;DHT22;64671;44.726;37.764;2023-11-19T02:25:17;9.38;78.83
75987;DHT22;64671;44.726;37.764;2023-11-19T02:26:30;9.37;78.28
75987;DHT22;64671;44.726;37.764;2023-11-19T02:29:00;9.36;78.28
75987;DHT22;64671;44.726;37.764;2023-11-19T02:30:03;9.36;79.03
75987;DHT22;64671;44.726;37.764;2023-11-19T02:31:09;9.35;77.76
75987;DHT22;64671;44.726;37.764;2023-11-19T02:32:12;9.34;78.57
75987;DHT22;64671;44.726;37.764;2023-11-19T02:33:16;9.32;78.19
75987;DHT22;64671;44.726;37.764;2023-11-19T02:34:19;9.33;78.15
75987;DHT22;64671;44.726;37.764;2023-11-19T02:35:26;9.34;78.81
75987;DHT22;64671;44.726;37.764;2023-11-19T02:36:29;9.33;78.78
75987;DHT22;64671;44.726;37.764;2023-11-19T02:37:32;9.31;78.85
75987;DHT22;64671;44.726;37.764;2023-11-19T02:38:35;9.31;79.37
75987;DHT22;64671;44.726;37.764;2023-11-19T02:39:39;9.30;78.44
75987;DHT22;64671;44.726;37.764;2023-11-19T02:40:42;9.32;78.47
75987;DHT22;64671;44.726;37.764;2023-11-19T02:41:45;9.33;78.88
75987;DHT22;64671;44.726;37.764;2023-11-19T02:42:48;9.35;78.61
75987;DHT22;64671;44.726;37.764;2023-11-19T02:43:51;9.38;77.99
75987;DHT22;64671;44.726;37.764;2023-11-19T02:44:54;9.41;77.98
75987;DHT22;64671;44.726;37.764;2023-11-19T02:45:57;9.40;78.30
75987;DHT22;64671;44.726;37.764;2023-11-19T02:47:00;9.41;77.08
75987;DHT22;64671;44.726;37.764;2023-11-19T02:48:06;9.44;78.67
75987;DHT22;64671;44.726;37.764;2023-11-19T02:49:08;9.44;78.41
75987;DHT22;64671;44.726;37.764;2023-11-19T02:50:13;9.45;79.59
75987;DHT22;64671;44.726;37.764;2023-11-19T02:51:19;9.44;79.96
75987;DHT22;64671;44.726;37.764;2023-11-19T02:52:21;9.42;79.78
75987;DHT22;64671;44.726;37.764;2023-11-19T02:53:24;9.41;77.87
75987;DHT22;64671;44.726;37.764;2023-11-19T02:54:30;9.40;78.56
75987;DHT22;64671;44.726;37.764;2023-11-19T02:55:37;9.40;79.30
75987;DHT22;64671;44.726;37.764;2023-11-19T02:56:43;9.40;78.61
75987;DHT22;64671;44.726;37.764;2023-11-19T02:57:51;9.42;78.95
75987;DHT22;64671;44.726;37.764;2023-11-19T02:58:56;9.45;79.15
75987;DHT22;64671;44.726;37.764;2023-11-19T02:59:59;9.44;80.76
75987;DHT22;64671;44.726;37.764;2023-11-19T03:01:02;9.42;79.25
75987;DHT22;64671;44.726;37.764;2023-11-19T03:02:15;9.44;79.58
75987;DHT22;64671;44.726;37.764;2023-11-19T03:03:20;9.41;77.71
75987;DHT22;64671;44.726;37.764;2023-11-19T03:04:23;9.41;78.43
75987;DHT22;64671;44.726;37.764;2023-11-19T03:05:27;9.39;78.60
75987;DHT22;64671;44.726;37.764;2023-11-19T03:06:33;9.41;78.47
75987;DHT22;64671;44.726;37.764;2023-11-19T03:07:36;9.42;77.82
75987;DHT22;64671;44.726;37.764;2023-11-19T03:08:39;9.42;78.34
75987;DHT22;64671;44.726;37.764;2023-11-19T03:09:42;9.45;79.18
75987;DHT22;64671;44.726;37.764;2023-11-19T03:10:46;9.44;78.92
75987;DHT22;64671;44.726;37.764;2023-11-19T03:11:49;9.42;79.08
75987;DHT22;64671;44.726;37.764;2023-11-19T03:12:52;9.41;78.64
75987;DHT22;64671;44.726;37.764;2023-11-19T03:13:55;9.40;78.44
75987;DHT22;64671;44.726;37.764;2023-11-19T03:14:58;9.39;78.80
75987;DHT22;64671;44.726;37.764;2023-11-19T03:16:01;9.37;78.13
75987;DHT22;64671;44.726;37.764;2023-11-19T03:17:04;9.35;79.53
75987;DHT22;64671;44.726;37.764;2023-11-19T03:18:07;9.34;79.59
75987;DHT22;64671;44.726;37.764;2023-11-19T03:19:10;9.33;78.86
75987;DHT22;64671;44.726;37.764;2023-11-19T03:20:13;9.34;78.56
75987;DHT22;64671;44.726;37.764;2023-11-19T03:21:19;9.32;79.14
75987;DHT22;64671;44.726;37.764;2023-11-19T03:22:23;9.32;78.70
75987;DHT22;64671;44.726;37.764;2023-11-19T03:23:26;9.33;78.89
75987;DHT22;64671;44.726;37.764;2023-11-19T03:24:32;9.32;78.50
75987;DHT22;64671;44.726;37.764;2023-11-19T03:25:35;9.34;77.86
75987;DHT22;64671;44.726;37.764;2023-11-19T03:26:38;9.34;78.49
75987;DHT22;64671;44.726;37.764;2023-11-19T03:27:41;9.34;78.69
75987;DHT22;64671;44.726;37.764;2023-11-19T03:28:44;9.34;78.56
75987;DHT22;64671;44.726;37.764;2023-11-19T03:29:47;9.34;78.41
75987;DHT22;64671;44.726;37.764;2023-11-19T03:30:51;9.34;77.27
75987;DHT22;64671;44.726;37.764;2023-11-19T03:31:55;9.36;77.68
75987;DHT22;64671;44.726;37.764;2023-11-19T03:32:58;9.38;77.73
75987;DHT22;64671;44.726;37.764;2023-11-19T03:34:03;9.39;78.11
75987;DHT22;64671;44.726;37.764;2023-11-19T03:35:06;9.42;78.09
75987;DHT22;64671;44.726;37.764;2023-11-19T03:36:11;9.44;77.08
75987;DHT22;64671;44.726;37.764;2023-11-19T03:37:15;9.45;77.70
75987;DHT22;64671;44.726;37.764;2023-11-19T03:38:19;9.45;77.05
75987;DHT22;64671;44.726;37.764;2023-11-19T03:39:23;9.42;77.03
75987;DHT22;64671;44.726;37.764;2023-11-19T03:40:28;9.44;77.24
75987;DHT22;64671;44.726;37.764;2023-11-19T03:41:31;9.46;77.93
75987;DHT22;64671;44.726;37.764;2023-11-19T03:42:37;9.44;77.69
75987;DHT22;64671;44.726;37.764;2023-11-19T03:43:40;9.45;78.72
75987;DHT22;64671;44.726;37.764;2023-11-19T03:44:43;9.40;78.59
75987;DHT22;64671;44.726;37.764;2023-11-19T03:45:46;9.38;77.84
75987;DHT22;64671;44.726;37.764;2023-11-19T03:46:49;9.36;78.13
75987;DHT22;64671;44.726;37.764;2023-11-19T03:47:52;9.37;78.45
75987;DHT22;64671;44.726;37.764;2023-11-19T03:48:55;9.39;78.34
75987;DHT22;64671;44.726;37.764;2023-11-19T03:49:58;9.41;78.78
75987;DHT22;64671;44.726;37.764;2023-11-19T03:51:01;9.42;78.72
75987;DHT22;64671;44.726;37.764;2023-11-19T03:52:05;9.41;78.33
75987;DHT22;64671;44.726;37.764;2023-11-19T03:53:08;9.44;78.72
75987;DHT22;64671;44.726;37.764;2023-11-19T03:54:11;9.41;78.63
75987;DHT22;64671;44.726;37.764;2023-11-19T03:55:14;9.40;78.44
75987;DHT22;64671;44.726;37.764;2023-11-19T03:56:17;9.39;78.20
75987;DHT22;64671;44.726;37.764;2023-11-19T03:57:21;9.41;78.12
75987;DHT22;64671;44.726;37.764;2023-11-19T03:58:24;9.40;78.30
75987;DHT22;64671;44.726;37.764;2023-11-19T03:59:27;9.42;78.76
75987;DHT22;64671;44.726;37.764;2023-11-19T04:00:30;9.42;78.23
75987;DHT22;64671;44.726;37.764;2023-11-19T04:01:33;9.45;78.90
75987;DHT22;64671;44.726;37.764;2023-11-19T04:02:37;9.42;78.88
75987;DHT22;64671;44.726;37.764;2023-11-19T04:03:40;9.41;79.14
75987;DHT22;64671;44.726;37.764;2023-11-19T04:04:52;9.45;79.72
75987;DHT22;64671;44.726;37.764;2023-11-19T04:05:55;9.46;80.56
75987;DHT22;64671;44.726;37.764;2023-11-19T04:07:00;9.42;78.94
75987;DHT22;64671;44.726;37.764;2023-11-19T04:08:03;9.38;77.99
75987;DHT22;64671;44.726;37.764;2023-11-19T04:09:06;9.37;78.30
75987;DHT22;64671;44.726;37.764;2023-11-19T04:10:09;9.36;78.97
75987;DHT22;64671;44.726;37.764;2023-11-19T04:11:12;9.36;80.18
75987;DHT22;64671;44.726;37.764;2023-11-19T04:12:16;9.32;80.14
75987;DHT22;64671;44.726;37.764;2023-11-19T04:13:19;9.32;79.45
75987;DHT22;64671;44.726;37.764;2023-11-19T04:14:22;9.33;80.05
75987;DHT22;64671;44.726;37.764;2023-11-19T04:15:25;9.30;79.21
75987;DHT22;64671;44.726;37.764;2023-11-19T04:16:28;9.29;79.23
75987;DHT22;64671;44.726;37.764;2023-11-19T04:17:32;9.30;79.21
75987;DHT22;64671;44.726;37.764;2023-11-19T04:18:35;9.29;80.46
75987;DHT22;64671;44.726;37.764;2023-11-19T04:19:38;9.27;80.78
75987;DHT22;64671;44.726;37.764;2023-11-19T04:20:43;9.24;79.37
75987;DHT22;64671;44.726;37.764;2023-11-19T04:21:46;9.24;80.11
75987;DHT22;64671;44.726;37.764;2023-11-19T04:22:50;9.23;79.62
75987;DHT22;64671;44.726;37.764;2023-11-19T04:23:54;9.24;80.45
75987;DHT22;64671;44.726;37.764;2023-11-19T04:24:57;9.23;80.17
75987;DHT22;64671;44.726;37.764;2023-11-19T04:26:03;9.27;80.52
75987;DHT22;64671;44.726;37.764;2023-11-19T04:27:13;9.31;81.00
75987;DHT22;64671;44.726;37.764;2023-11-19T04:28:16;9.33;81.14
75987;DHT22;64671;44.726;37.764;2023-11-19T04:29:20;9.33;79.60
75987;DHT22;64671;44.726;37.764;2023-11-19T04:30:24;9.35;81.17
75987;DHT22;64671;44.726;37.764;2023-11-19T04:31:30;9.34;79.61
75987;DHT22;64671;44.726;37.764;2023-11-19T04:32:34;9.34;80.42
75987;DHT22;64671;44.726;37.764;2023-11-19T04:33:37;9.34;79.30
75987;DHT22;64671;44.726;37.764;2023-11-19T04:34:40;9.35;78.88
75987;DHT22;64671;44.726;37.764;2023-11-19T04:35:44;9.36;78.92
75987;DHT22;64671;44.726;37.764;2023-11-19T04:36:47;9.40;78.61
75987;DHT22;64671;44.726;37.764;2023-11-19T04:37:50;9.41;79.56
75987;DHT22;64671;44.726;37.764;2023-11-19T04:38:53;9.42;80.27
75987;DHT22;64671;44.726;37.764;2023-11-19T04:39:56;9.41;79.05
75987;DHT22;64671;44.726;37.764;2023-11-19T04:40:59;9.42;79.22
75987;DHT22;64671;44.726;37.764;2023-11-19T04:42:03;9.42;78.37
75987;DHT22;64671;44.726;37.764;2023-11-19T04:43:07;9.45;78.37
75987;DHT22;64671;44.726;37.764;2023-11-19T04:44:10;9.46;79.27
75987;DHT22;64671;44.726;37.764;2023-11-19T04:45:13;9.44;79.32
75987;DHT22;64671;44.726;37.764;2023-11-19T04:46:16;9.45;78.72
75987;DHT22;64671;44.726;37.764;2023-11-19T04:47:20;9.45;79.70
75987;DHT22;64671;44.726;37.764;2023-11-19T04:48:23;9.44;79.33
75987;DHT22;64671;44.726;37.764;2023-11-19T04:49:25;9.41;78.91
75987;DHT22;64671;44.726;37.764;2023-11-19T04:50:29;9.40;79.21
75987;DHT22;64671;44.726;37.764;2023-11-19T04:51:38;9.39;78.82
75987;DHT22;64671;44.726;37.764;2023-11-19T04:52:42;9.40;78.63
75987;DHT22;64671;44.726;37.764;2023-11-19T04:53:47;9.41;77.41
75987;DHT22;64671;44.726;37.764;2023-11-19T04:54:50;9.44;78.53
75987;DHT22;64671;44.726;37.764;2023-11-19T04:55:53;9.46;78.59
75987;DHT22;64671;44.726;37.764;2023-11-19T04:56:56;9.46;78.78
75987;DHT22;64671;44.726;37.764;2023-11-19T04:57:59;9.49;78.92
75987;DHT22;64671;44.726;37.764;2023-11-19T04:59:02;9.52;79.02
75987;DHT22;64671;44.726;37.764;2023-11-19T05:00:05;9.52;79.42
75987;DHT22;64671;44.726;37.764;2023-11-19T05:01:17;9.52;77.94
75987;DHT22;64671;44.726;37.764;2023-11-19T05:02:20;9.52;78.66
75987;DHT22;64671;44.726;37.764;2023-11-19T05:03:23;9.53;76.78
75987;DHT22;64671;44.726;37.764;2023-11-19T05:04:26;9.56;78.24
75987;DHT22;64671;44.726;37.764;2023-11-19T05:05:29;9.55;77.47
75987;DHT22;64671;44.726;37.764;2023-11-19T05:06:32;9.53;78.17
75987;DHT22;64671;44.726;37.764;2023-11-19T05:07:34;9.49;78.72
75987;DHT22;64671;44.726;37.764;2023-11-19T05:08:37;9.49;78.52
75987;DHT22;64671;44.726;37.764;2023-11-19T05:09:40;9.50;79.59
75987;DHT22;64671;44.726;37.764;2023-11-19T05:10:43;9.49;79.69
75987;DHT22;64671;44.726;37.764;2023-11-19T05:11:46;9.48;79.13
75987;DHT22;64671;44.726;37.764;2023-11-19T05:12:52;9.47;79.27
75987;DHT22;64671;44.726;37.764;2023-11-19T05:13:55;9.46;79.25
75987;DHT22;64671;44.726;37.764;2023-11-19T05:14:58;9.44;78.89
75987;DHT22;64671;44.726;37.764;2023-11-19T05:16:00;9.45;79.64
75987;DHT22;64671;44.726;37.764;2023-11-19T05:17:04;9.44;79.69
75987;DHT22;64671;44.726;37.764;2023-11-19T05:18:07;9.42;79.64
75987;DHT22;64671;44.726;37.764;2023-11-19T05:19:10;9.41;79.43
75987;DHT22;64671;44.726;37.764;2023-11-19T05:20:12;9.42;79.64
75987;DHT22;64671;44.726;37.764;2023-11-19T05:21:16;9.42;80.16
75987;DHT22;64671;44.726;37.764;2023-11-19T05:22:19;9.44;80.28
75987;DHT22;64671;44.726;37.764;2023-11-19T05:23:23;9.45;79.19
75987;DHT22;64671;44.726;37.764;2023-11-19T05:24:26;9.47;80.03
75987;DHT22;64671;44.726;37.764;2023-11-19T05:25:28;9.47;79.21
75987;DHT22;64671;44.726;37.764;2023-11-19T05:26:32;9.46;78.98
75987;DHT22;64671;44.726;37.764;2023-11-19T05:27:36;9.47;78.72
75987;DHT22;64671;44.726;37.764;2023-11-19T05:28:39;9.47;78.69
75987;DHT22;64671;44.726;37.764;2023-11-19T05:29:42;9.48;79.01
75987;DHT22;64671;44.726;37.764;2023-11-19T05:30:46;9.48;79.36
75987;DHT22;64671;44.726;37.764;2023-11-19T05:31:49;9.48;79.88
75987;DHT22;64671;44.726;37.764;2023-11-19T05:32:52;9.47;79.77
75987;DHT22;64671;44.726;37.764;2023-11-19T05:33:54;9.48;79.62
75987;DHT22;64671;44.726;37.764;2023-11-19T05:34:57;9.50;79.79
75987;DHT22;64671;44.726;37.764;2023-11-19T05:36:00;9.49;80.07
75987;DHT22;64671;44.726;37.764;2023-11-19T05:37:05;9.52;79.90
75987;DHT22;64671;44.726;37.764;2023-11-19T05:38:08;9.54;80.40
75987;DHT22;64671;44.726;37.764;2023-11-19T05:39:12;9.55;79.91
75987;DHT22;64671;44.726;37.764;2023-11-19T05:40:15;9.54;78.98
75987;DHT22;64671;44.726;37.764;2023-11-19T05:41:17;9.53;79.33
75987;DHT22;64671;44.726;37.764;2023-11-19T05:42:20;9.52;79.91
75987;DHT22;64671;44.726;37.764;2023-11-19T05:43:23;9.51;78.82
75987;DHT22;64671;44.726;37.764;2023-11-19T05:44:26;9.52;79.08
75987;DHT22;64671;44.726;37.764;2023-11-19T05:45:29;9.53;80.07
75987;DHT22;64671;44.726;37.764;2023-11-19T05:46:32;9.54;78.63
75987;DHT22;64671;44.726;37.764;2023-11-19T05:47:35;9.53;79.02
75987;DHT22;64671;44.726;37.764;2023-11-19T05:48:38;9.56;80.72
75987;DHT22;64671;44.726;37.764;2023-11-19T05:49:41;9.54;79.13
75987;DHT22;64671;44.726;37.764;2023-11-19T05:50:44;9.55;78.67
75987;DHT22;64671;44.726;37.764;2023-11-19T05:51:47;9.53;79.02
75987;DHT22;64671;44.726;37.764;2023-11-19T05:52:50;9.53;79.00
75987;DHT22;64671;44.726;37.764;2023-11-19T05:53:55;9.51;78.87
75987;DHT22;64671;44.726;37.764;2023-11-19T05:55:02;9.51;80.32
75987;DHT22;64671;44.726;37.764;2023-11-19T05:56:12;9.48;79.84
75987;DHT22;64671;44.726;37.764;2023-11-19T05:57:15;9.47;80.16
75987;DHT22;64671;44.726;37.764;2023-11-19T05:58:26;9.51;80.25
75987;DHT22;64671;44.726;37.764;2023-11-19T05:59:31;9.54;80.35
75987;DHT22;64671;44.726;37.764;2023-11-19T06:00:35;9.55;80.94
75987;DHT22;64671;44.726;37.764;2023-11-19T06:01:38;9.55;81.62
75987;DHT22;64671;44.726;37.764;2023-11-19T06:02:43;9.57;80.83
75987;DHT22;64671;44.726;37.764;2023-11-19T06:03:46;9.61;80.25
75987;DHT22;64671;44.726;37.764;2023-11-19T06:04:52;9.65;79.89
75987;DHT22;64671;44.726;37.764;2023-11-19T06:05:55;9.68;80.09
75987;DHT22;64671;44.726;37.764;2023-11-19T06:06:58;9.71;79.69
75987;DHT22;64671;44.726;37.764;2023-11-19T06:08:01;9.75;80.40
75987;DHT22;64671;44.726;37.764;2023-11-19T06:09:04;9.78;79.67
75987;DHT22;64671;44.726;37.764;2023-11-19T06:10:11;9.81;80.35
75987;DHT22;64671;44.726;37.764;2023-11-19T06:11:16;9.85;79.80
75987;DHT22;64671;44.726;37.764;2023-11-19T06:12:22;9.86;79.45
75987;DHT22;64671;44.726;37.764;2023-11-19T06:13:25;9.89;80.30
75987;DHT22;64671;44.726;37.764;2023-11-19T06:14:28;9.89;78.93
75987;DHT22;64671;44.726;37.764;2023-11-19T06:15:31;9.88;79.14
75987;DHT22;64671;44.726;37.764;2023-11-19T06:16:35;9.88;79.00
75987;DHT22;64671;44.726;37.764;2023-11-19T06:17:39;9.85;79.85
75987;DHT22;64671;44.726;37.764;2023-11-19T06:18:42;9.88;80.12
75987;DHT22;64671;44.726;37.764;2023-11-19T06:19:46;9.86;79.63
75987;DHT22;64671;44.726;37.764;2023-11-19T06:20:49;9.89;81.29
75987;DHT22;64671;44.726;37.764;2023-11-19T06:21:52;9.89;79.91
75987;DHT22;64671;44.726;37.764;2023-11-19T06:22:55;9.92;81.26
75987;DHT22;64671;44.726;37.764;2023-11-19T06:23:59;9.92;81.83
75987;DHT22;64671;44.726;37.764;2023-11-19T06:25:02;9.92;79.65
75987;DHT22;64671;44.726;37.764;2023-11-19T06:26:09;9.95;79.59
75987;DHT22;64671;44.726;37.764;2023-11-19T06:27:12;9.94;81.14
75987;DHT22;64671;44.726;37.764;2023-11-19T06:28:15;9.94;80.40
75987;DHT22;64671;44.726;37.764;2023-11-19T06:29:18;9.94;80.78
75987;DHT22;64671;44.726;37.764;2023-11-19T06:30:22;9.94;79.43
75987;DHT22;64671;44.726;37.764;2023-11-19T06:31:25;9.94;79.66
75987;DHT22;64671;44.726;37.764;2023-11-19T06:32:28;9.93;79.81
75987;DHT22;64671;44.726;37.764;2023-11-19T06:33:31;9.95;80.72
75987;DHT22;64671;44.726;37.764;2023-11-19T06:34:34;9.97;81.52
75987;DHT22;64671;44.726;37.764;2023-11-19T06:35:37;9.96;81.49
75987;DHT22;64671;44.726;37.764;2023-11-19T06:36:40;9.98;81.75
75987;DHT22;64671;44.726;37.764;2023-11-19T06:37:43;9.98;80.24
75987;DHT22;64671;44.726;37.764;2023-11-19T06:38:46;9.97;80.28
75987;DHT22;64671;44.726;37.764;2023-11-19T06:39:49;9.99;80.46
75987;DHT22;64671;44.726;37.764;2023-11-19T06:40:52;9.98;79.65
75987;DHT22;64671;44.726;37.764;2023-11-19T06:41:55;9.97;81.21
75987;DHT22;64671;44.726;37.764;2023-11-19T06:42:59;9.96;80.02
75987;DHT22;64671;44.726;37.764;2023-11-19T06:44:02;9.98;80.50